sensor_id;sensor_type;location;lat;lon;timestamp;P1;durP1;ratioP1;P2;durP2;ratioP2
357;SDS011;167;47.558;7.602;2022-10-31T00:01:16;7.53;;;6.87;;
357;SDS011;167;47.558;7.602;2022-10-31T00:03:42;8.10;;;7.40;;
357;SDS011;167;47.558;7.602;2022-10-31T00:06:08;7.77;;;6.93;;
357;SDS011;167;47.558;7.602;2022-10-31T00:08:34;10.90;;;6.77;;
357;SDS011;167;47.558;7.602;2022-10-31T00:11:00;9.40;;;6.97;;
357;SDS011;167;47.558;7.602;2022-10-31T00:13:26;8.87;;;7.73;;
357;SDS011;167;47.558;7.602;2022-10-31T00:15:52;7.27;;;6.13;;
357;SDS011;167;47.558;7.602;2022-10-31T00:18:18;12.33;;;8.73;;
357;SDS011;167;47.558;7.602;2022-10-31T00:20:44;8.17;;;7.47;;
357;SDS011;167;47.558;7.602;2022-10-31T00:23:11;7.53;;;6.80;;
357;SDS011;167;47.558;7.602;2022-10-31T00:25:37;8.77;;;7.73;;
357;SDS011;167;47.558;7.602;2022-10-31T00:28:04;9.10;;;8.30;;
357;SDS011;167;47.558;7.602;2022-10-31T00:30:31;7.53;;;6.93;;
357;SDS011;167;47.558;7.602;2022-10-31T00:32:57;8.30;;;7.27;;
357;SDS011;167;47.558;7.602;2022-10-31T00:35:23;8.37;;;7.37;;
357;SDS011;167;47.558;7.602;2022-10-31T00:37:49;8.33;;;7.63;;
357;SDS011;167;47.558;7.602;2022-10-31T00:40:15;7.70;;;7.00;;
357;SDS011;167;47.558;7.602;2022-10-31T00:42:41;9.27;;;8.00;;
357;SDS011;167;47.558;7.602;2022-10-31T00:45:08;8.70;;;7.70;;
357;SDS011;167;47.558;7.602;2022-10-31T00:47:34;7.83;;;6.97;;
357;SDS011;167;47.558;7.602;2022-10-31T00:50:00;7.80;;;7.00;;
357;SDS011;167;47.558;7.602;2022-10-31T00:52:26;8.67;;;6.80;;
357;SDS011;167;47.558;7.602;2022-10-31T00:54:52;8.23;;;7.43;;
357;SDS011;167;47.558;7.602;2022-10-31T00:57:18;7.30;;;6.70;;
357;SDS011;167;47.558;7.602;2022-10-31T00:59:44;8.40;;;6.63;;
357;SDS011;167;47.558;7.602;2022-10-31T01:02:10;7.67;;;7.13;;
357;SDS011;167;47.558;7.602;2022-10-31T01:04:36;7.77;;;6.50;;
357;SDS011;167;47.558;7.602;2022-10-31T01:07:02;8.43;;;7.60;;
357;SDS011;167;47.558;7.602;2022-10-31T01:09:28;6.70;;;6.10;;
357;SDS011;167;47.558;7.602;2022-10-31T01:11:54;10.73;;;6.60;;
357;SDS011;167;47.558;7.602;2022-10-31T01:14:20;18.37;;;8.00;;
357;SDS011;167;47.558;7.602;2022-10-31T01:16:46;8.60;;;7.40;;
357;SDS011;167;47.558;7.602;2022-10-31T01:19:12;9.80;;;7.80;;
357;SDS011;167;47.558;7.602;2022-10-31T01:21:38;7.60;;;6.90;;
357;SDS011;167;47.558;7.602;2022-10-31T01:24:04;9.37;;;7.20;;
357;SDS011;167;47.558;7.602;2022-10-31T01:26:31;8.50;;;7.13;;
357;SDS011;167;47.558;7.602;2022-10-31T01:28:58;7.70;;;6.90;;
357;SDS011;167;47.558;7.602;2022-10-31T01:31:26;7.87;;;7.03;;
357;SDS011;167;47.558;7.602;2022-10-31T01:33:53;7.97;;;7.17;;
357;SDS011;167;47.558;7.602;2022-10-31T01:36:26;7.50;;;6.77;;
357;SDS011;167;47.558;7.602;2022-10-31T01:38:53;8.13;;;7.33;;
357;SDS011;167;47.558;7.602;2022-10-31T01:41:20;9.50;;;7.40;;
357;SDS011;167;47.558;7.602;2022-10-31T01:46:16;8.83;;;8.03;;
357;SDS011;167;47.558;7.602;2022-10-31T01:48:44;10.30;;;6.70;;
357;SDS011;167;47.558;7.602;2022-10-31T01:51:10;8.33;;;7.53;;
357;SDS011;167;47.558;7.602;2022-10-31T01:53:38;9.17;;;7.10;;
357;SDS011;167;47.558;7.602;2022-10-31T01:56:04;7.20;;;6.50;;
357;SDS011;167;47.558;7.602;2022-10-31T01:58:31;9.13;;;6.70;;
357;SDS011;167;47.558;7.602;2022-10-31T02:00:59;8.80;;;7.90;;
357;SDS011;167;47.558;7.602;2022-10-31T02:03:25;6.67;;;5.97;;
357;SDS011;167;47.558;7.602;2022-10-31T02:05:55;8.60;;;7.93;;
357;SDS011;167;47.558;7.602;2022-10-31T02:08:24;10.27;;;6.70;;
357;SDS011;167;47.558;7.602;2022-10-31T02:10:52;7.70;;;6.90;;
357;SDS011;167;47.558;7.602;2022-10-31T02:13:18;6.73;;;6.10;;
357;SDS011;167;47.558;7.602;2022-10-31T02:15:45;11.73;;;6.27;;
357;SDS011;167;47.558;7.602;2022-10-31T02:18:12;7.13;;;6.27;;
357;SDS011;167;47.558;7.602;2022-10-31T02:20:42;9.60;;;7.17;;
357;SDS011;167;47.558;7.602;2022-10-31T02:31:12;8.60;;;7.13;;
357;SDS011;167;47.558;7.602;2022-10-31T02:46:44;7.07;;;6.57;;
357;SDS011;167;47.558;7.602;2022-10-31T02:49:23;8.67;;;7.77;;
357;SDS011;167;47.558;7.602;2022-10-31T02:51:50;9.17;;;8.37;;
357;SDS011;167;47.558;7.602;2022-10-31T02:54:21;13.20;;;9.47;;
357;SDS011;167;47.558;7.602;2022-10-31T02:56:48;9.60;;;8.70;;
357;SDS011;167;47.558;7.602;2022-10-31T02:59:14;10.17;;;9.20;;
357;SDS011;167;47.558;7.602;2022-10-31T03:02:03;10.30;;;9.27;;
357;SDS011;167;47.558;7.602;2022-10-31T03:07:18;10.57;;;9.37;;
357;SDS011;167;47.558;7.602;2022-10-31T03:09:52;8.70;;;7.67;;
357;SDS011;167;47.558;7.602;2022-10-31T03:17:54;9.90;;;8.20;;
357;SDS011;167;47.558;7.602;2022-10-31T03:20:23;8.13;;;7.33;;
357;SDS011;167;47.558;7.602;2022-10-31T03:22:50;8.47;;;7.80;;
357;SDS011;167;47.558;7.602;2022-10-31T03:25:17;9.07;;;8.27;;
357;SDS011;167;47.558;7.602;2022-10-31T03:27:43;7.73;;;6.90;;
357;SDS011;167;47.558;7.602;2022-10-31T03:30:10;9.10;;;8.27;;
357;SDS011;167;47.558;7.602;2022-10-31T03:32:57;7.90;;;7.13;;
357;SDS011;167;47.558;7.602;2022-10-31T03:35:23;8.00;;;7.40;;
357;SDS011;167;47.558;7.602;2022-10-31T03:37:49;7.07;;;6.47;;
357;SDS011;167;47.558;7.602;2022-10-31T03:40:17;9.37;;;8.27;;
357;SDS011;167;47.558;7.602;2022-10-31T03:42:46;9.67;;;7.70;;
357;SDS011;167;47.558;7.602;2022-10-31T03:45:17;8.23;;;7.50;;
357;SDS011;167;47.558;7.602;2022-10-31T03:47:44;7.73;;;7.03;;
357;SDS011;167;47.558;7.602;2022-10-31T03:50:11;8.20;;;6.90;;
357;SDS011;167;47.558;7.602;2022-10-31T03:52:46;10.10;;;6.87;;
357;SDS011;167;47.558;7.602;2022-10-31T03:55:21;9.37;;;7.27;;
357;SDS011;167;47.558;7.602;2022-10-31T03:58:00;7.90;;;7.20;;
357;SDS011;167;47.558;7.602;2022-10-31T04:00:27;6.97;;;6.27;;
357;SDS011;167;47.558;7.602;2022-10-31T04:02:58;7.70;;;7.00;;
357;SDS011;167;47.558;7.602;2022-10-31T04:05:26;8.13;;;7.53;;
357;SDS011;167;47.558;7.602;2022-10-31T04:07:53;11.33;;;9.50;;
357;SDS011;167;47.558;7.602;2022-10-31T04:10:20;8.57;;;7.87;;
357;SDS011;167;47.558;7.602;2022-10-31T04:12:48;7.87;;;7.27;;
357;SDS011;167;47.558;7.602;2022-10-31T04:15:15;9.50;;;8.50;;
357;SDS011;167;47.558;7.602;2022-10-31T04:17:41;7.67;;;7.00;;
357;SDS011;167;47.558;7.602;2022-10-31T04:20:09;7.53;;;6.87;;
357;SDS011;167;47.558;7.602;2022-10-31T04:22:35;8.00;;;7.40;;
357;SDS011;167;47.558;7.602;2022-10-31T04:25:01;7.10;;;6.40;;
357;SDS011;167;47.558;7.602;2022-10-31T04:27:27;7.93;;;7.03;;
357;SDS011;167;47.558;7.602;2022-10-31T04:29:53;7.20;;;6.63;;
357;SDS011;167;47.558;7.602;2022-10-31T04:32:19;8.00;;;7.20;;
357;SDS011;167;47.558;7.602;2022-10-31T04:34:45;8.07;;;7.30;;
357;SDS011;167;47.558;7.602;2022-10-31T04:37:11;9.30;;;8.10;;
357;SDS011;167;47.558;7.602;2022-10-31T04:39:37;8.27;;;6.97;;
357;SDS011;167;47.558;7.602;2022-10-31T04:42:03;7.53;;;6.90;;
357;SDS011;167;47.558;7.602;2022-10-31T04:44:29;7.43;;;6.83;;
357;SDS011;167;47.558;7.602;2022-10-31T04:46:55;7.83;;;7.17;;
357;SDS011;167;47.558;7.602;2022-10-31T04:49:21;6.70;;;6.20;;
357;SDS011;167;47.558;7.602;2022-10-31T04:51:47;9.70;;;8.80;;
357;SDS011;167;47.558;7.602;2022-10-31T04:54:13;8.67;;;7.93;;
357;SDS011;167;47.558;7.602;2022-10-31T04:56:39;7.67;;;6.87;;
357;SDS011;167;47.558;7.602;2022-10-31T04:59:05;7.10;;;6.50;;
357;SDS011;167;47.558;7.602;2022-10-31T05:01:31;8.20;;;7.40;;
357;SDS011;167;47.558;7.602;2022-10-31T05:03:57;9.23;;;8.00;;
357;SDS011;167;47.558;7.602;2022-10-31T05:06:23;9.20;;;8.40;;
357;SDS011;167;47.558;7.602;2022-10-31T05:08:49;9.13;;;8.33;;
357;SDS011;167;47.558;7.602;2022-10-31T05:11:15;8.40;;;7.70;;
357;SDS011;167;47.558;7.602;2022-10-31T05:13:41;8.60;;;7.83;;
357;SDS011;167;47.558;7.602;2022-10-31T05:16:07;10.17;;;8.60;;
357;SDS011;167;47.558;7.602;2022-10-31T05:18:33;8.60;;;8.00;;
357;SDS011;167;47.558;7.602;2022-10-31T05:20:59;8.87;;;7.90;;
357;SDS011;167;47.558;7.602;2022-10-31T05:23:25;8.57;;;7.77;;
357;SDS011;167;47.558;7.602;2022-10-31T05:25:51;8.87;;;8.07;;
357;SDS011;167;47.558;7.602;2022-10-31T05:28:17;8.37;;;7.57;;
357;SDS011;167;47.558;7.602;2022-10-31T05:30:43;8.30;;;7.60;;
357;SDS011;167;47.558;7.602;2022-10-31T05:33:09;11.53;;;8.13;;
357;SDS011;167;47.558;7.602;2022-10-31T05:35:35;8.77;;;7.87;;
357;SDS011;167;47.558;7.602;2022-10-31T05:38:01;8.40;;;7.70;;
357;SDS011;167;47.558;7.602;2022-10-31T05:40:27;8.20;;;7.60;;
357;SDS011;167;47.558;7.602;2022-10-31T05:42:54;10.20;;;9.03;;
357;SDS011;167;47.558;7.602;2022-10-31T05:45:21;8.03;;;7.33;;
357;SDS011;167;47.558;7.602;2022-10-31T05:48:00;10.23;;;8.73;;
357;SDS011;167;47.558;7.602;2022-10-31T05:50:27;7.27;;;6.67;;
357;SDS011;167;47.558;7.602;2022-10-31T05:52:54;9.70;;;7.90;;
357;SDS011;167;47.558;7.602;2022-10-31T05:55:20;7.13;;;6.43;;
357;SDS011;167;47.558;7.602;2022-10-31T05:57:46;6.83;;;6.43;;
357;SDS011;167;47.558;7.602;2022-10-31T06:00:12;8.90;;;7.03;;
357;SDS011;167;47.558;7.602;2022-10-31T06:02:38;8.07;;;7.27;;
357;SDS011;167;47.558;7.602;2022-10-31T06:05:04;7.70;;;6.90;;
357;SDS011;167;47.558;7.602;2022-10-31T06:07:34;8.10;;;7.53;;
357;SDS011;167;47.558;7.602;2022-10-31T06:10:00;8.00;;;7.30;;
357;SDS011;167;47.558;7.602;2022-10-31T06:12:27;6.30;;;5.87;;
357;SDS011;167;47.558;7.602;2022-10-31T06:14:52;8.57;;;7.87;;
357;SDS011;167;47.558;7.602;2022-10-31T06:17:18;9.40;;;8.00;;
357;SDS011;167;47.558;7.602;2022-10-31T06:19:44;7.97;;;7.17;;
357;SDS011;167;47.558;7.602;2022-10-31T06:22:10;12.37;;;7.97;;
357;SDS011;167;47.558;7.602;2022-10-31T06:24:37;10.57;;;8.17;;
357;SDS011;167;47.558;7.602;2022-10-31T06:27:03;9.47;;;8.20;;
357;SDS011;167;47.558;7.602;2022-10-31T06:29:29;9.40;;;7.90;;
357;SDS011;167;47.558;7.602;2022-10-31T06:31:55;8.67;;;7.90;;
357;SDS011;167;47.558;7.602;2022-10-31T06:34:21;9.47;;;8.33;;
357;SDS011;167;47.558;7.602;2022-10-31T06:36:47;7.83;;;7.13;;
357;SDS011;167;47.558;7.602;2022-10-31T06:39:14;8.07;;;7.37;;
357;SDS011;167;47.558;7.602;2022-10-31T06:41:40;7.47;;;6.87;;
357;SDS011;167;47.558;7.602;2022-10-31T06:44:06;7.43;;;6.80;;
357;SDS011;167;47.558;7.602;2022-10-31T06:46:32;6.67;;;6.20;;
357;SDS011;167;47.558;7.602;2022-10-31T06:48:59;7.63;;;6.93;;
357;SDS011;167;47.558;7.602;2022-10-31T06:51:25;8.17;;;7.47;;
357;SDS011;167;47.558;7.602;2022-10-31T06:53:51;8.87;;;6.53;;
357;SDS011;167;47.558;7.602;2022-10-31T06:56:16;8.40;;;7.70;;
357;SDS011;167;47.558;7.602;2022-10-31T06:58:42;7.03;;;6.40;;
357;SDS011;167;47.558;7.602;2022-10-31T07:01:08;6.77;;;5.80;;
357;SDS011;167;47.558;7.602;2022-10-31T07:03:34;6.13;;;5.63;;
357;SDS011;167;47.558;7.602;2022-10-31T07:06:00;6.67;;;5.97;;
357;SDS011;167;47.558;7.602;2022-10-31T07:08:27;6.80;;;6.20;;
357;SDS011;167;47.558;7.602;2022-10-31T07:10:53;6.50;;;5.80;;
357;SDS011;167;47.558;7.602;2022-10-31T07:13:20;5.50;;;5.20;;
357;SDS011;167;47.558;7.602;2022-10-31T07:15:51;6.27;;;5.77;;
357;SDS011;167;47.558;7.602;2022-10-31T07:18:18;6.00;;;5.50;;
357;SDS011;167;47.558;7.602;2022-10-31T07:20:44;5.27;;;4.87;;
357;SDS011;167;47.558;7.602;2022-10-31T07:23:10;5.90;;;5.30;;
357;SDS011;167;47.558;7.602;2022-10-31T07:25:37;6.43;;;5.83;;
357;SDS011;167;47.558;7.602;2022-10-31T07:28:03;5.30;;;5.00;;
357;SDS011;167;47.558;7.602;2022-10-31T07:30:29;6.33;;;5.83;;
357;SDS011;167;47.558;7.602;2022-10-31T07:32:55;5.73;;;5.23;;
357;SDS011;167;47.558;7.602;2022-10-31T07:35:25;6.63;;;5.00;;
357;SDS011;167;47.558;7.602;2022-10-31T07:37:51;5.30;;;4.80;;
357;SDS011;167;47.558;7.602;2022-10-31T07:40:18;4.80;;;4.40;;
357;SDS011;167;47.558;7.602;2022-10-31T07:42:45;5.60;;;5.10;;
357;SDS011;167;47.558;7.602;2022-10-31T07:45:12;6.00;;;5.47;;
357;SDS011;167;47.558;7.602;2022-10-31T07:47:41;8.13;;;6.27;;
357;SDS011;167;47.558;7.602;2022-10-31T07:50:08;5.47;;;4.97;;
357;SDS011;167;47.558;7.602;2022-10-31T07:52:34;7.07;;;5.80;;
357;SDS011;167;47.558;7.602;2022-10-31T07:55:00;6.53;;;5.20;;
357;SDS011;167;47.558;7.602;2022-10-31T07:57:27;6.03;;;5.23;;
357;SDS011;167;47.558;7.602;2022-10-31T07:59:53;5.37;;;4.97;;
357;SDS011;167;47.558;7.602;2022-10-31T08:02:19;6.40;;;4.70;;
357;SDS011;167;47.558;7.602;2022-10-31T08:04:45;5.30;;;4.83;;
357;SDS011;167;47.558;7.602;2022-10-31T08:07:11;6.30;;;5.57;;
357;SDS011;167;47.558;7.602;2022-10-31T08:09:37;5.17;;;4.77;;
357;SDS011;167;47.558;7.602;2022-10-31T08:12:03;5.13;;;4.73;;
357;SDS011;167;47.558;7.602;2022-10-31T08:14:29;6.60;;;5.17;;
357;SDS011;167;47.558;7.602;2022-10-31T08:16:55;4.37;;;4.17;;
357;SDS011;167;47.558;7.602;2022-10-31T08:19:21;5.00;;;4.50;;
357;SDS011;167;47.558;7.602;2022-10-31T08:21:50;5.00;;;4.53;;
357;SDS011;167;47.558;7.602;2022-10-31T08:24:16;6.23;;;4.33;;
357;SDS011;167;47.558;7.602;2022-10-31T08:26:42;6.20;;;4.73;;
357;SDS011;167;47.558;7.602;2022-10-31T08:29:08;7.13;;;4.80;;
357;SDS011;167;47.558;7.602;2022-10-31T08:31:34;4.50;;;4.13;;
357;SDS011;167;47.558;7.602;2022-10-31T08:34:00;4.63;;;4.23;;
357;SDS011;167;47.558;7.602;2022-10-31T08:36:27;6.20;;;5.60;;
357;SDS011;167;47.558;7.602;2022-10-31T08:38:54;5.50;;;5.10;;
357;SDS011;167;47.558;7.602;2022-10-31T08:41:20;11.03;;;4.90;;
357;SDS011;167;47.558;7.602;2022-10-31T08:43:46;5.40;;;4.90;;
357;SDS011;167;47.558;7.602;2022-10-31T08:46:12;5.30;;;5.00;;
357;SDS011;167;47.558;7.602;2022-10-31T08:48:38;6.90;;;5.47;;
357;SDS011;167;47.558;7.602;2022-10-31T08:51:04;5.23;;;4.77;;
357;SDS011;167;47.558;7.602;2022-10-31T08:53:30;5.47;;;5.17;;
357;SDS011;167;47.558;7.602;2022-10-31T08:55:56;5.50;;;5.10;;
357;SDS011;167;47.558;7.602;2022-10-31T08:58:23;7.23;;;5.13;;
357;SDS011;167;47.558;7.602;2022-10-31T09:00:52;6.07;;;5.57;;
357;SDS011;167;47.558;7.602;2022-10-31T09:03:21;8.47;;;5.50;;
357;SDS011;167;47.558;7.602;2022-10-31T09:05:47;5.50;;;5.07;;
357;SDS011;167;47.558;7.602;2022-10-31T09:08:13;6.43;;;5.77;;
357;SDS011;167;47.558;7.602;2022-10-31T09:10:39;6.10;;;5.67;;
357;SDS011;167;47.558;7.602;2022-10-31T09:13:06;6.20;;;5.63;;
357;SDS011;167;47.558;7.602;2022-10-31T09:15:33;6.70;;;5.77;;
357;SDS011;167;47.558;7.602;2022-10-31T09:18:00;5.80;;;5.20;;
357;SDS011;167;47.558;7.602;2022-10-31T09:20:26;5.53;;;5.03;;
357;SDS011;167;47.558;7.602;2022-10-31T09:22:56;5.57;;;5.17;;
357;SDS011;167;47.558;7.602;2022-10-31T09:25:22;5.27;;;4.87;;
357;SDS011;167;47.558;7.602;2022-10-31T09:27:48;5.30;;;5.00;;
357;SDS011;167;47.558;7.602;2022-10-31T09:30:14;6.37;;;5.53;;
357;SDS011;167;47.558;7.602;2022-10-31T09:32:40;5.57;;;4.33;;
357;SDS011;167;47.558;7.602;2022-10-31T09:35:07;4.83;;;4.50;;
357;SDS011;167;47.558;7.602;2022-10-31T09:37:33;6.10;;;5.60;;
357;SDS011;167;47.558;7.602;2022-10-31T09:39:59;5.73;;;5.23;;
357;SDS011;167;47.558;7.602;2022-10-31T09:42:29;5.43;;;5.03;;
357;SDS011;167;47.558;7.602;2022-10-31T09:45:10;5.87;;;5.37;;
357;SDS011;167;47.558;7.602;2022-10-31T09:52:30;5.10;;;4.60;;
357;SDS011;167;47.558;7.602;2022-10-31T09:55:03;7.83;;;5.27;;
357;SDS011;167;47.558;7.602;2022-10-31T09:57:31;5.00;;;4.50;;
357;SDS011;167;47.558;7.602;2022-10-31T09:59:58;5.07;;;4.77;;
357;SDS011;167;47.558;7.602;2022-10-31T10:09:55;4.80;;;4.40;;
357;SDS011;167;47.558;7.602;2022-10-31T10:14:57;4.77;;;4.37;;
357;SDS011;167;47.558;7.602;2022-10-31T10:17:34;4.63;;;4.23;;
357;SDS011;167;47.558;7.602;2022-10-31T10:25:13;4.57;;;4.13;;
357;SDS011;167;47.558;7.602;2022-10-31T10:30:13;5.37;;;3.77;;
357;SDS011;167;47.558;7.602;2022-10-31T10:32:42;4.40;;;4.20;;
357;SDS011;167;47.558;7.602;2022-10-31T10:35:29;4.10;;;3.73;;
357;SDS011;167;47.558;7.602;2022-10-31T10:37:58;13.07;;;4.43;;
357;SDS011;167;47.558;7.602;2022-10-31T10:40:26;3.40;;;3.20;;
357;SDS011;167;47.558;7.602;2022-10-31T10:43:18;4.00;;;3.70;;
357;SDS011;167;47.558;7.602;2022-10-31T10:45:49;3.20;;;3.10;;
357;SDS011;167;47.558;7.602;2022-10-31T10:48:44;4.40;;;4.00;;
357;SDS011;167;47.558;7.602;2022-10-31T10:51:15;4.10;;;3.70;;
357;SDS011;167;47.558;7.602;2022-10-31T10:59:06;4.57;;;4.27;;
357;SDS011;167;47.558;7.602;2022-10-31T11:01:32;8.50;;;4.80;;
357;SDS011;167;47.558;7.602;2022-10-31T11:03:58;4.60;;;4.20;;
357;SDS011;167;47.558;7.602;2022-10-31T11:06:24;7.10;;;4.67;;
357;SDS011;167;47.558;7.602;2022-10-31T11:08:51;5.43;;;4.70;;
357;SDS011;167;47.558;7.602;2022-10-31T11:13:44;5.30;;;4.70;;
357;SDS011;167;47.558;7.602;2022-10-31T11:16:12;4.53;;;4.23;;
357;SDS011;167;47.558;7.602;2022-10-31T11:18:40;4.90;;;4.47;;
357;SDS011;167;47.558;7.602;2022-10-31T11:21:17;4.30;;;4.00;;
357;SDS011;167;47.558;7.602;2022-10-31T11:23:45;5.50;;;5.00;;
357;SDS011;167;47.558;7.602;2022-10-31T11:26:18;4.93;;;4.00;;
357;SDS011;167;47.558;7.602;2022-10-31T11:28:44;3.80;;;3.50;;
357;SDS011;167;47.558;7.602;2022-10-31T11:31:21;4.03;;;3.73;;
357;SDS011;167;47.558;7.602;2022-10-31T11:33:48;4.53;;;4.03;;
357;SDS011;167;47.558;7.602;2022-10-31T11:36:21;4.33;;;3.93;;
357;SDS011;167;47.558;7.602;2022-10-31T11:38:48;6.67;;;6.27;;
357;SDS011;167;47.558;7.602;2022-10-31T11:41:16;4.67;;;4.33;;
357;SDS011;167;47.558;7.602;2022-10-31T11:43:47;3.93;;;3.73;;
357;SDS011;167;47.558;7.602;2022-10-31T11:46:15;3.57;;;3.37;;
357;SDS011;167;47.558;7.602;2022-10-31T11:48:46;4.23;;;3.83;;
357;SDS011;167;47.558;7.602;2022-10-31T11:51:13;4.77;;;3.80;;
357;SDS011;167;47.558;7.602;2022-10-31T11:53:52;4.50;;;4.10;;
357;SDS011;167;47.558;7.602;2022-10-31T11:56:18;4.77;;;4.37;;
357;SDS011;167;47.558;7.602;2022-10-31T11:58:54;4.53;;;4.23;;
357;SDS011;167;47.558;7.602;2022-10-31T12:01:25;6.00;;;5.50;;
357;SDS011;167;47.558;7.602;2022-10-31T12:03:54;4.57;;;4.10;;
357;SDS011;167;47.558;7.602;2022-10-31T12:06:34;5.00;;;4.53;;
357;SDS011;167;47.558;7.602;2022-10-31T12:09:01;6.00;;;4.43;;
357;SDS011;167;47.558;7.602;2022-10-31T12:19:25;4.70;;;3.30;;
357;SDS011;167;47.558;7.602;2022-10-31T12:21:59;4.20;;;3.60;;
357;SDS011;167;47.558;7.602;2022-10-31T12:30:08;3.70;;;3.40;;
357;SDS011;167;47.558;7.602;2022-10-31T12:35:35;4.63;;;3.33;;
357;SDS011;167;47.558;7.602;2022-10-31T12:40:56;3.70;;;3.50;;
357;SDS011;167;47.558;7.602;2022-10-31T12:49:04;5.63;;;4.23;;
357;SDS011;167;47.558;7.602;2022-10-31T12:59:27;4.50;;;4.10;;
357;SDS011;167;47.558;7.602;2022-10-31T13:02:10;4.53;;;3.80;;
357;SDS011;167;47.558;7.602;2022-10-31T13:04:43;4.20;;;3.43;;
357;SDS011;167;47.558;7.602;2022-10-31T13:07:15;6.70;;;3.60;;
357;SDS011;167;47.558;7.602;2022-10-31T13:09:49;3.50;;;3.20;;
357;SDS011;167;47.558;7.602;2022-10-31T13:12:17;5.67;;;4.17;;
357;SDS011;167;47.558;7.602;2022-10-31T13:14:46;5.27;;;4.50;;
357;SDS011;167;47.558;7.602;2022-10-31T13:17:16;6.03;;;3.40;;
357;SDS011;167;47.558;7.602;2022-10-31T13:19:45;4.60;;;3.53;;
357;SDS011;167;47.558;7.602;2022-10-31T13:22:13;4.77;;;3.87;;
357;SDS011;167;47.558;7.602;2022-10-31T13:27:13;4.30;;;3.90;;
357;SDS011;167;47.558;7.602;2022-10-31T13:29:41;5.10;;;3.80;;
357;SDS011;167;47.558;7.602;2022-10-31T13:32:08;4.67;;;4.20;;
357;SDS011;167;47.558;7.602;2022-10-31T13:34:36;6.40;;;4.10;;
357;SDS011;167;47.558;7.602;2022-10-31T13:42:20;5.80;;;3.73;;
357;SDS011;167;47.558;7.602;2022-10-31T13:44:49;4.50;;;4.10;;
357;SDS011;167;47.558;7.602;2022-10-31T13:47:28;3.60;;;3.40;;
357;SDS011;167;47.558;7.602;2022-10-31T13:50:14;6.60;;;3.60;;
357;SDS011;167;47.558;7.602;2022-10-31T13:52:44;4.13;;;3.57;;
357;SDS011;167;47.558;7.602;2022-10-31T13:57:55;3.73;;;3.43;;
357;SDS011;167;47.558;7.602;2022-10-31T14:00:25;7.43;;;3.60;;
357;SDS011;167;47.558;7.602;2022-10-31T14:02:52;3.20;;;2.90;;
357;SDS011;167;47.558;7.602;2022-10-31T14:07:45;5.07;;;3.63;;
357;SDS011;167;47.558;7.602;2022-10-31T14:10:24;6.50;;;3.17;;
357;SDS011;167;47.558;7.602;2022-10-31T14:12:51;4.10;;;3.37;;
357;SDS011;167;47.558;7.602;2022-10-31T14:15:22;3.47;;;3.17;;
357;SDS011;167;47.558;7.602;2022-10-31T14:18:01;2.90;;;2.70;;
357;SDS011;167;47.558;7.602;2022-10-31T14:23:25;8.60;;;3.10;;
357;SDS011;167;47.558;7.602;2022-10-31T14:25:52;3.03;;;2.70;;
357;SDS011;167;47.558;7.602;2022-10-31T14:28:19;3.33;;;2.93;;
357;SDS011;167;47.558;7.602;2022-10-31T14:30:52;3.13;;;2.93;;
357;SDS011;167;47.558;7.602;2022-10-31T14:33:19;4.23;;;3.10;;
357;SDS011;167;47.558;7.602;2022-10-31T14:35:53;9.40;;;3.53;;
357;SDS011;167;47.558;7.602;2022-10-31T14:46:15;3.50;;;3.20;;
357;SDS011;167;47.558;7.602;2022-10-31T14:48:53;3.67;;;2.93;;
357;SDS011;167;47.558;7.602;2022-10-31T14:51:35;3.40;;;2.80;;
357;SDS011;167;47.558;7.602;2022-10-31T14:54:02;3.20;;;2.90;;
357;SDS011;167;47.558;7.602;2022-10-31T14:56:31;3.13;;;2.93;;
357;SDS011;167;47.558;7.602;2022-10-31T14:58:59;4.57;;;3.87;;
357;SDS011;167;47.558;7.602;2022-10-31T15:01:27;5.33;;;3.40;;
357;SDS011;167;47.558;7.602;2022-10-31T15:03:54;3.60;;;3.30;;
357;SDS011;167;47.558;7.602;2022-10-31T15:06:23;2.90;;;2.70;;
357;SDS011;167;47.558;7.602;2022-10-31T15:08:51;7.33;;;3.50;;
357;SDS011;167;47.558;7.602;2022-10-31T15:11:24;5.27;;;3.67;;
357;SDS011;167;47.558;7.602;2022-10-31T15:13:57;5.10;;;3.27;;
357;SDS011;167;47.558;7.602;2022-10-31T15:16:31;5.07;;;4.37;;
357;SDS011;167;47.558;7.602;2022-10-31T15:18:59;7.70;;;3.60;;
357;SDS011;167;47.558;7.602;2022-10-31T15:21:26;3.27;;;3.07;;
357;SDS011;167;47.558;7.602;2022-10-31T15:23:54;3.00;;;2.70;;
357;SDS011;167;47.558;7.602;2022-10-31T15:26:22;6.50;;;3.07;;
357;SDS011;167;47.558;7.602;2022-10-31T15:28:59;7.53;;;3.10;;
357;SDS011;167;47.558;7.602;2022-10-31T15:31:26;5.90;;;3.43;;
357;SDS011;167;47.558;7.602;2022-10-31T15:33:52;4.10;;;3.07;;
357;SDS011;167;47.558;7.602;2022-10-31T15:36:20;5.23;;;3.43;;
357;SDS011;167;47.558;7.602;2022-10-31T15:38:47;5.77;;;3.20;;
357;SDS011;167;47.558;7.602;2022-10-31T15:41:22;3.93;;;3.27;;
357;SDS011;167;47.558;7.602;2022-10-31T15:43:48;4.50;;;3.20;;
357;SDS011;167;47.558;7.602;2022-10-31T15:46:14;4.37;;;3.17;;
357;SDS011;167;47.558;7.602;2022-10-31T15:48:43;7.50;;;3.60;;
357;SDS011;167;47.558;7.602;2022-10-31T15:51:10;4.83;;;3.33;;
357;SDS011;167;47.558;7.602;2022-10-31T15:53:37;4.90;;;3.33;;
357;SDS011;167;47.558;7.602;2022-10-31T15:56:08;8.57;;;3.73;;
357;SDS011;167;47.558;7.602;2022-10-31T15:58:43;5.60;;;3.60;;
357;SDS011;167;47.558;7.602;2022-10-31T16:03:54;4.83;;;3.70;;
357;SDS011;167;47.558;7.602;2022-10-31T16:06:22;4.03;;;3.00;;
357;SDS011;167;47.558;7.602;2022-10-31T16:08:48;5.40;;;4.53;;
357;SDS011;167;47.558;7.602;2022-10-31T16:14:00;4.20;;;3.47;;
357;SDS011;167;47.558;7.602;2022-10-31T16:16:28;6.80;;;3.80;;
357;SDS011;167;47.558;7.602;2022-10-31T16:18:54;4.07;;;3.73;;
357;SDS011;167;47.558;7.602;2022-10-31T16:21:31;6.13;;;3.90;;
357;SDS011;167;47.558;7.602;2022-10-31T16:24:00;4.40;;;4.00;;
357;SDS011;167;47.558;7.602;2022-10-31T16:26:27;4.37;;;4.00;;
357;SDS011;167;47.558;7.602;2022-10-31T16:28:54;6.70;;;3.97;;
357;SDS011;167;47.558;7.602;2022-10-31T16:31:28;6.27;;;4.20;;
357;SDS011;167;47.558;7.602;2022-10-31T16:34:01;5.00;;;4.50;;
357;SDS011;167;47.558;7.602;2022-10-31T16:38:55;4.40;;;4.00;;
357;SDS011;167;47.558;7.602;2022-10-31T16:41:21;5.90;;;4.50;;
357;SDS011;167;47.558;7.602;2022-10-31T16:43:48;4.97;;;3.70;;
357;SDS011;167;47.558;7.602;2022-10-31T16:46:15;6.13;;;4.77;;
357;SDS011;167;47.558;7.602;2022-10-31T16:48:42;4.30;;;3.90;;
357;SDS011;167;47.558;7.602;2022-10-31T16:51:08;6.80;;;4.30;;
357;SDS011;167;47.558;7.602;2022-10-31T16:53:34;5.80;;;4.50;;
357;SDS011;167;47.558;7.602;2022-10-31T16:56:02;6.43;;;4.67;;
357;SDS011;167;47.558;7.602;2022-10-31T16:58:29;6.03;;;4.93;;
357;SDS011;167;47.558;7.602;2022-10-31T17:00:57;6.03;;;4.67;;
357;SDS011;167;47.558;7.602;2022-10-31T17:03:23;6.03;;;5.50;;
357;SDS011;167;47.558;7.602;2022-10-31T17:05:49;4.93;;;4.47;;
357;SDS011;167;47.558;7.602;2022-10-31T17:08:15;5.20;;;4.23;;
357;SDS011;167;47.558;7.602;2022-10-31T17:10:41;6.20;;;4.57;;
357;SDS011;167;47.558;7.602;2022-10-31T17:13:11;6.17;;;5.47;;
357;SDS011;167;47.558;7.602;2022-10-31T17:15:43;7.23;;;4.27;;
357;SDS011;167;47.558;7.602;2022-10-31T17:18:13;4.37;;;3.97;;
357;SDS011;167;47.558;7.602;2022-10-31T17:20:40;5.80;;;5.27;;
357;SDS011;167;47.558;7.602;2022-10-31T17:23:08;6.80;;;4.70;;
357;SDS011;167;47.558;7.602;2022-10-31T17:25:35;5.70;;;5.10;;
357;SDS011;167;47.558;7.602;2022-10-31T17:28:01;6.53;;;6.03;;
357;SDS011;167;47.558;7.602;2022-10-31T17:30:27;6.00;;;5.50;;
357;SDS011;167;47.558;7.602;2022-10-31T17:32:53;6.97;;;5.77;;
357;SDS011;167;47.558;7.602;2022-10-31T17:35:19;11.50;;;4.87;;
357;SDS011;167;47.558;7.602;2022-10-31T17:37:46;7.10;;;6.40;;
357;SDS011;167;47.558;7.602;2022-10-31T17:40:13;6.53;;;4.83;;
357;SDS011;167;47.558;7.602;2022-10-31T17:42:39;6.73;;;4.80;;
357;SDS011;167;47.558;7.602;2022-10-31T17:45:05;6.97;;;5.50;;
357;SDS011;167;47.558;7.602;2022-10-31T17:47:32;5.40;;;4.90;;
357;SDS011;167;47.558;7.602;2022-10-31T17:49:58;6.73;;;4.63;;
357;SDS011;167;47.558;7.602;2022-10-31T17:52:24;10.70;;;5.57;;
357;SDS011;167;47.558;7.602;2022-10-31T17:54:50;6.50;;;5.80;;
357;SDS011;167;47.558;7.602;2022-10-31T17:57:16;7.10;;;5.10;;